Aurora, Iowa
Current Conditions -  °F | °C
As of 11:35 PM on Thursday 30 Oct 2014 (Local Time) from KOLZ Reporting Station
Overcast Overcast  
Wind Chill: 35°   Ceiling: 4400
Heat Index: 43°   Visibility: 10mi
Dew Point: 32°   Wind: 16mph
Humidity: 66%   Direction: 350°N
Pressure: 30.19"   Gusts: 25mph
Location:  42.62°N, 91.73°W
Report Text: KOLZ 310435Z AUTO 35014G22KT 10SM FEW035 OVC044 06/00 A3019 RMK AO2
Loading
Personal Weather Stations






























Interactive Weather Map New forecast layout! Learn more

10-Day Weather Forecast

Advertisements
Track Severe Weather on mobile